tititudorancea.com
Station Historical Data
Daily Summary for February 28, 2019 Units:  Metric    English   Both
« Previous Day
Next Day »
Daily Weekly Monthly Yearly Custom
  High: Low: Average:
Temperature: -17.8 °C 19.2 °C 27.8 °C
Dew Point: -17.8 °C 5.3 °C 8.1 °C
Humidity: Humidity % 15 % 31 %
Wind Speed: 0 km/h 0 km/h 10.8 km/h
Wind Gust: 0 km/h - -
Wind:- - West
Pressure: 0 hPa 1013.1 hPa -
Precipitation: 0 mm    
Historical Graphs
 
 
Ararat weather Find more about Weather in Ararat, AU


 



 


Tabular Data for February 28, 2019
Time Temperature Dew Point Pressure Wind Wind Speed Wind Gust Humidity Rainfall Rate (Hourly)
-17.8 °C -17.8 °C 0 hPa Calm     Humidity % 0 mm
00:04 20.7 °C 9.3 °C 1015.5 hPa NW 5.6 km/h 3.2 km/h 48 % 0 mm
00:09 20.7 °C 9.6 °C 1015.5 hPa Calm     49 % 0 mm
00:14 20.7 °C 9.9 °C 1015.5 hPa NW 1.9 km/h   50 % 0 mm
00:19 20.6 °C 9.8 °C 1015.5 hPa NW 3.7 km/h 1.9 km/h 50 % 0 mm
00:24 20.4 °C 9.6 °C 1015.5 hPa NW 5.6 km/h 1.6 km/h 50 % 0 mm
00:29 20.3 °C 9.3 °C 1015.5 hPa NW 3.7 km/h 1.6 km/h 49 % 0 mm
00:34 20.3 °C 9.5 °C 1015.5 hPa NW 1.9 km/h 0.3 km/h 50 % 0 mm
00:39 20.3 °C 9.5 °C 1015.5 hPa NW 5.6 km/h 2.9 km/h 50 % 0 mm
00:44 20.3 °C 9.5 °C 1015.5 hPa Calm     50 % 0 mm
00:49 20.2 °C 9.4 °C 1015.5 hPa NW 3.2 km/h 1.8 km/h 50 % 0 mm
00:54 20.2 °C 9.1 °C 1015.5 hPa NW 4.8 km/h 3.2 km/h 49 % 0 mm
00:59 20.4 °C 9.1 °C 1015.5 hPa NW 5.6 km/h 1.8 km/h 48 % 0 mm
01:04 21 °C 8.9 °C 1015.5 hPa NW 7.4 km/h 4.8 km/h 46 % 0 mm
01:09 22.1 °C 8.6 °C 1015.1 hPa NW 5.6 km/h 3.2 km/h 42 % 0 mm
01:14 22.7 °C 8.4 °C 1015.5 hPa North 5.6 km/h 3.7 km/h 40 % 0 mm
01:19 23.1 °C 8.4 °C 1015.5 hPa NW 4.8 km/h 2.9 km/h 39 % 0 mm
01:24 23.6 °C 8.4 °C 1015.5 hPa NW 5.6 km/h 5.1 km/h 38 % 0 mm
01:29 23.9 °C 8.3 °C 1015.1 hPa North 5.6 km/h 3.5 km/h 37 % 0 mm
01:34 24 °C 8.4 °C 1015.5 hPa NW 5.6 km/h 3.7 km/h 37 % 0 mm
01:39 24 °C 8.4 °C 1015.5 hPa NW 4.8 km/h 5 km/h 37 % 0 mm
01:44 24 °C 8.4 °C 1015.5 hPa NW 5.6 km/h 3.7 km/h 37 % 0 mm
01:49 24.2 °C 8.2 °C 1015.5 hPa NW 7.4 km/h 6.1 km/h 36 % 0 mm
01:54 24.2 °C 8.6 °C 1015.1 hPa North 5.6 km/h 3.5 km/h 37 % 0 mm
01:59 24.3 °C 8.2 °C 1015.1 hPa NW 5.6 km/h 4.3 km/h 36 % 0 mm
02:04 24.3 °C 8.2 °C 1015.1 hPa NW 5.6 km/h 4.3 km/h 36 % 0 mm
02:09 24.2 °C 8.6 °C 1015.1 hPa NW 7.4 km/h 4 km/h 37 % 0 mm
02:14 24.2 °C 8.6 °C 1015.1 hPa NW 5.6 km/h 3.2 km/h 37 % 0 mm
02:19 24.3 °C 8.7 °C 1015.1 hPa NW 5.6 km/h 2.4 km/h 37 % 0 mm
02:24 24.3 °C 8.2 °C 1015.1 hPa NW 5.6 km/h 2.7 km/h 36 % 0 mm
02:29 24.2 °C 8.6 °C 1015.1 hPa NW 5.6 km/h 4.2 km/h 37 % 0 mm
02:34 24.2 °C 8.6 °C 1015.1 hPa NW 5.6 km/h 3.1 km/h 37 % 0 mm
02:39 24.3 °C 8.2 °C 1015.1 hPa NW 7.4 km/h 4.5 km/h 36 % 0 mm
02:44 24.4 °C 8.3 °C 1014.8 hPa NW 5.6 km/h 3.1 km/h 36 % 0 mm
02:49 24.4 °C 8.3 °C 1014.8 hPa NW 6.4 km/h 5.6 km/h 36 % 0 mm
02:54 24.5 °C 8.4 °C 1014.8 hPa NW 3.7 km/h 2.1 km/h 36 % 0 mm
02:59 24.4 °C 8.3 °C 1014.8 hPa NW 5.6 km/h 3.2 km/h 36 % 0 mm
03:04 24.3 °C 8.3 °C 1014.8 hPa NW 5.6 km/h 4.5 km/h 36 % 0 mm
03:09 24.3 °C 8.2 °C 1014.8 hPa NW 5.6 km/h 2.7 km/h 36 % 0 mm
03:14 24.2 °C 8.6 °C 1014.8 hPa NW 5.6 km/h 3.4 km/h 37 % 0 mm
03:19 24.1 °C 8.5 °C 1014.8 hPa NW 5.6 km/h 3.5 km/h 37 % 0 mm
03:24 24 °C 8.4 °C 1014.4 hPa NW 5.6 km/h 3.2 km/h 37 % 0 mm
03:29 23.8 °C 8.3 °C 1014.4 hPa NW 7.4 km/h 4.7 km/h 37 % 0 mm
03:34 23.8 °C 8.2 °C 1014.8 hPa NW 5.6 km/h 4.7 km/h 37 % 0 mm
03:39 23.8 °C 8.2 °C 1014.8 hPa North 7.4 km/h 4.8 km/h 37 % 0 mm
03:44 24 °C 8.4 °C 1014.4 hPa NW 6.4 km/h 4.2 km/h 37 % 0 mm
03:49 24.1 °C 8.1 °C 1014.8 hPa North 5.6 km/h 4.7 km/h 36 % 0 mm
03:54 24.1 °C 8.4 °C 1014.4 hPa NW 5.6 km/h 4.2 km/h 37 % 0 mm
03:59 23.9 °C 8.3 °C 1014.4 hPa North 7.4 km/h 3.9 km/h 37 % 0 mm
04:03 24 °C 8 °C 1014.4 hPa NW 5.6 km/h 5 km/h 36 % 0 mm
04:08 24.1 °C 8.1 °C 1014.4 hPa NW 5.6 km/h 3.4 km/h 36 % 0 mm
04:12 24.1 °C 8.1 °C 1014.4 hPa NW 7.4 km/h 5.6 km/h 36 % 0 mm
04:17 24.3 °C 8.2 °C 1014.4 hPa NW 9.3 km/h 6.3 km/h 36 % 0 mm
04:21 24.3 °C 8.2 °C 1014.4 hPa NW 7.4 km/h 5.3 km/h 36 % 0 mm
04:25 24.2 °C 8.2 °C 1014.4 hPa NW 7.4 km/h 5.1 km/h 36 % 0 mm
04:30 24.1 °C 8.1 °C 1014.4 hPa NW 9.3 km/h 5 km/h 36 % 0 mm
04:34 24.1 °C 8.1 °C 1014.4 hPa NW 5.6 km/h 3.1 km/h 36 % 0 mm
04:38 24.1 °C 8.1 °C 1014.4 hPa Calm     36 % 0 mm
04:43 23.8 °C 8.2 °C 1014.4 hPa NW 7.4 km/h 3.9 km/h 37 % 0 mm
04:47 23.6 °C 8.1 °C 1014.4 hPa NW 5.6 km/h 2.6 km/h 37 % 0 mm
04:51 23.6 °C 8 °C 1014.4 hPa NW 5.6 km/h 3.2 km/h 37 % 0 mm
04:55 23.5 °C 7.9 °C 1014.4 hPa NW 5.6 km/h 2.7 km/h 37 % 0 mm
04:59 23.4 °C 7.9 °C 1014.4 hPa NW 3.7 km/h 2.3 km/h 37 % 0 mm
05:03 23.3 °C 8.2 °C 1014.4 hPa NW 3.7 km/h 2.1 km/h 38 % 0 mm
05:08 23.1 °C 8.3 °C 1014.4 hPa NW 3.7 km/h 1.8 km/h 39 % 0 mm
05:11 22.9 °C 8.2 °C 1014.4 hPa NW 1.9 km/h 1.4 km/h 39 % 0 mm
05:16 22.6 °C 7.9 °C 1014.4 hPa NW 1.9 km/h 0.8 km/h 39 % 0 mm
05:20 22.4 °C 8.1 °C 1014.4 hPa NW 1.9 km/h 0.6 km/h 40 % 0 mm
05:24 22.1 °C 8.2 °C 1014.4 hPa NW 3.7 km/h 1.3 km/h 41 % 0 mm
05:28 21.8 °C 8.3 °C 1014.4 hPa NW 3.7 km/h 1 km/h 42 % 0 mm
05:32 21.6 °C 8.4 °C 1014.4 hPa NW 3.2 km/h 1 km/h 43 % 0 mm
05:37 21.4 °C 8.3 °C 1014.4 hPa NW 3.7 km/h 2.6 km/h 43 % 0 mm
05:41 21.3 °C 8.2 °C 1014.4 hPa NW 1.9 km/h 0.6 km/h 43 % 0 mm
05:45 21.1 °C 8.4 °C 1014.4 hPa Calm     44 % 0 mm
05:50 21 °C 8.3 °C 1014.8 hPa NW 1.6 km/h 3.2 km/h 44 % 0 mm
05:53 20.9 °C 8.5 °C 1014.8 hPa NW 1.9 km/h 0.5 km/h 45 % 0 mm
05:58 20.7 °C 8.7 °C 1014.8 hPa North 1.9 km/h 0.2 km/h 46 % 0 mm
06:02 20.6 °C 8.6 °C 1014.8 hPa NW 3.7 km/h 1.8 km/h 46 % 0 mm
06:06 20.6 °C 8.2 °C 1014.8 hPa NW 5.6 km/h 3.7 km/h 45 % 0 mm
06:11 20.7 °C 8.6 °C 1014.8 hPa NW 5.6 km/h 3.2 km/h 46 % 0 mm
06:15 20.7 °C 8.6 °C 1014.8 hPa NW 5.6 km/h 2.6 km/h 46 % 0 mm
06:19 20.6 °C 8.6 °C 1014.8 hPa NW 5.6 km/h 3.1 km/h 46 % 0 mm
06:23 20.4 °C 8.4 °C 1014.8 hPa NW 3.7 km/h 2.7 km/h 46 % 0 mm
06:28 20.3 °C 8.7 °C 1015.1 hPa NW 5.6 km/h 4 km/h 47 % 0 mm
06:32 20.3 °C 8.6 °C 1015.1 hPa NW 5.6 km/h 3.7 km/h 47 % 0 mm
06:36 20.2 °C 8.5 °C 1015.1 hPa NW 4.8 km/h 2.9 km/h 47 % 0 mm
06:41 20.1 °C 8.7 °C 1015.1 hPa NW 5.6 km/h 2.9 km/h 48 % 0 mm
06:45 19.9 °C 8.6 °C 1015.1 hPa NW 3.7 km/h 2.1 km/h 48 % 0 mm
06:49 19.8 °C 8.5 °C 1015.1 hPa NW 3.7 km/h 2.4 km/h 48 % 0 mm
06:54 19.7 °C 8.4 °C 1015.1 hPa NW 3.7 km/h 1.8 km/h 48 % 0 mm
06:58 19.6 °C 8.6 °C 1015.1 hPa NW 3.7 km/h 2.6 km/h 49 % 0 mm
07:02 19.4 °C 8.4 °C 1015.1 hPa NW 3.7 km/h 2.3 km/h 49 % 0 mm
07:06 19.4 °C 8.4 °C 1015.1 hPa NW 3.7 km/h 1.3 km/h 49 % 0 mm
07:10 19.3 °C 8.6 °C 1015.1 hPa NW 1.9 km/h 1.9 km/h 50 % 0 mm
07:15 19.2 °C 8.6 °C 1015.5 hPa NW 3.7 km/h 2.6 km/h 50 % 0 mm
07:19 19.2 °C 8.6 °C 1015.5 hPa NW 5.6 km/h 3.1 km/h 50 % 0 mm
07:23 19.2 °C 8.6 °C 1015.5 hPa NW 3.7 km/h 1.6 km/h 50 % 0 mm
07:28 19.2 °C 8.8 °C 1015.5 hPa NW 3.7 km/h 2.1 km/h 51 % 0 mm
07:32 19.2 °C 8.6 °C 1015.8 hPa NW 3.7 km/h 1.9 km/h 50 % 0 mm
07:36 19.2 °C 8.5 °C 1015.8 hPa NW 3.7 km/h 2.4 km/h 50 % 0 mm
07:40 19.2 °C 8.6 °C 1015.8 hPa NW 3.7 km/h 3.2 km/h 50 % 0 mm
07:44 19.5 °C 8.8 °C 1015.8 hPa North 5.6 km/h 3.5 km/h 50 % 0 mm
07:49 19.8 °C 8.8 °C 1015.8 hPa NW 5.6 km/h 4.5 km/h 49 % 0 mm
07:52 20.1 °C 9 °C 1015.8 hPa NW 5.6 km/h 4.5 km/h 49 % 0 mm
07:57 20.4 °C 8.7 °C 1016.1 hPa NW 8 km/h 6.8 km/h 47 % 0 mm
08:02 20.9 °C 8.6 °C 1016.1 hPa NW 8 km/h 5.6 km/h 45 % 0 mm
08:05 21.3 °C 8.8 °C 1016.1 hPa NW 5.6 km/h 2.6 km/h 45 % 0 mm
08:10 21.6 °C 8.8 °C 1016.1 hPa NW 3.7 km/h 2.3 km/h 44 % 0 mm
08:14 21.9 °C 8.8 °C 1016.1 hPa NW 5.6 km/h 4.2 km/h 43 % 0 mm
08:18 22.3 °C 9.1 °C 1016.1 hPa NW 5.6 km/h 3.4 km/h 43 % 0 mm
08:22 22.8 °C 9.2 °C 1016.1 hPa North 7.4 km/h 3.2 km/h 42 % 0 mm
08:26 23.2 °C 9.2 °C 1016.1 hPa NW 5.6 km/h 2.9 km/h 41 % 0 mm
08:30 23.6 °C 9.2 °C 1016.1 hPa NW 5.6 km/h 2.7 km/h 40 % 0 mm
08:35 23.9 °C 9.9 °C 1016.1 hPa NW 3.7 km/h 1.3 km/h 41 % 0 mm
08:39 24.3 °C 9.5 °C 1016.1 hPa NW 5.6 km/h 2.9 km/h 39 % 0 mm
08:41 24.5 °C 9.6 °C 1016.1 hPa NW 5.6 km/h 2.9 km/h 39 % 0 mm
08:48 25.2 °C 9.5 °C 1016.5 hPa NW 5.6 km/h 2.6 km/h 37 % 0 mm
08:55 26 °C 9.3 °C 1016.5 hPa NW 7.4 km/h 4.8 km/h 35 % 0 mm
09:02 26.7 °C 9.6 °C 1016.5 hPa NW 9.7 km/h 6.6 km/h 34 % 0 mm
09:09 27.4 °C 8.8 °C 1016.5 hPa North 14.8 km/h 13.4 km/h 31 % 0 mm
09:16 28.2 °C 8.9 °C 1016.5 hPa North 14.5 km/h 11.4 km/h 30 % 0 mm
09:24 28.8 °C 8.9 °C 1016.1 hPa North 19.3 km/h 13.8 km/h 29 % 0 mm
09:32 29.3 °C 8.3 °C 1016.1 hPa North 20.4 km/h 11.6 km/h 27 % 0 mm
09:40 29.6 °C 8.1 °C 1016.1 hPa North 31.5 km/h 19 km/h 26 % 0 mm
09:49 29.8 °C 8.3 °C 1016.5 hPa North 18.5 km/h 14.2 km/h 26 % 0 mm
09:57 30 °C 7.8 °C 1016.5 hPa North 25.9 km/h 12.9 km/h 25 % 0 mm
10:04 29.9 °C 7.8 °C 1016.5 hPa NNE 24.1 km/h 19 km/h 25 % 0 mm
10:12 30 °C 7.8 °C 1016.5 hPa North 29.6 km/h 17.1 km/h 25 % 0 mm
10:21 30.2 °C 8.6 °C 1016.5 hPa North 20.4 km/h 13.4 km/h 26 % 0 mm
10:30 30.7 °C 8.4 °C 1016.5 hPa North 22.2 km/h 14.6 km/h 25 % 0 mm
10:39 31 °C 8.7 °C 1016.5 hPa North 18.5 km/h 13.7 km/h 25 % 0 mm
10:50 31.4 °C 9 °C 1016.5 hPa NNE 20.4 km/h 15.8 km/h 25 % 0 mm
10:58 31.5 °C 8.5 °C 1016.5 hPa North 20.4 km/h 10.3 km/h 24 % 0 mm
11:04 31.6 °C 8.6 °C 1016.5 hPa North 24.1 km/h 16.4 km/h 24 % 0 mm
11:09 31.8 °C 8.8 °C 1016.5 hPa NNW 20.4 km/h 13.5 km/h 24 % 0 mm
11:14 32 °C 8.9 °C 1016.5 hPa North 19.3 km/h 13.2 km/h 24 % 0 mm
11:19 32.3 °C 8.6 °C 1016.5 hPa North 22.2 km/h 17.2 km/h 23 % 0 mm
11:24 32.4 °C 9.2 °C 1016.5 hPa North 24.1 km/h 12.7 km/h 24 % 0 mm
11:29 32.3 °C 8.6 °C 1016.5 hPa NNW 16.7 km/h 12.4 km/h 23 % 0 mm
11:34 32.4 °C 8.6 °C 1016.5 hPa NW 29.6 km/h 19.5 km/h 23 % 0 mm
11:39 32.5 °C 8.7 °C 1016.5 hPa NNE 24.1 km/h 12.9 km/h 23 % 0 mm
11:44 32.7 °C 8.8 °C 1016.5 hPa North 25.9 km/h 12.9 km/h 23 % 0 mm
11:49 32.9 °C 9 °C 1016.5 hPa North 22.5 km/h 18.3 km/h 23 % 0 mm
11:54 33 °C 9.1 °C 1016.5 hPa North 16.7 km/h 11.1 km/h 23 % 0 mm
11:59 33.2 °C 8.6 °C 1016.5 hPa North 25.7 km/h 18.8 km/h 22 % 0 mm
12:04 33.2 °C 8.6 °C 1016.5 hPa North 29.6 km/h 15.6 km/h 22 % 0 mm
12:09 33.3 °C 9.3 °C 1016.1 hPa NNW 20.4 km/h 8.5 km/h 23 % 0 mm
12:14 33.4 °C 8.1 °C 1016.1 hPa NNE 25.9 km/h 17.9 km/h 21 % 0 mm
12:19 33.4 °C 8.1 °C 1016.1 hPa NNW 27.8 km/h 21.2 km/h 21 % 0 mm
12:24 33.3 °C 8 °C 1016.1 hPa NNW 25.9 km/h 21.4 km/h 21 % 0 mm
12:29 33.3 °C 8.7 °C 1016.1 hPa NNW 20.9 km/h 15 km/h 22 % 0 mm
12:34 33.9 °C 8.5 °C 1016.1 hPa NNW 29 km/h 18.8 km/h 21 % 0 mm
12:39 34.1 °C 8.6 °C 1015.8 hPa North 18.5 km/h 12.7 km/h 21 % 0 mm
12:44 34.2 °C 8.8 °C 1015.8 hPa NW 18.5 km/h 11.9 km/h 21 % 0 mm
12:49 34.4 °C 8.9 °C 1015.8 hPa NNW 31.5 km/h 20.6 km/h 21 % 0 mm
12:54 34.2 °C 8.1 °C 1015.8 hPa NNW 22.2 km/h 15.4 km/h 20 % 0 mm
12:59 34.3 °C 8.1 °C 1015.8 hPa NNE 25.7 km/h 17.5 km/h 20 % 0 mm
13:04 34 °C 7.9 °C 1015.8 hPa NW 35.2 km/h 20.9 km/h 20 % 0 mm
13:09 34.1 °C 7.9 °C 1015.5 hPa NW 22.2 km/h 17.9 km/h 20 % 0 mm
13:14 34.3 °C 8.1 °C 1015.5 hPa NW 24.1 km/h 15 km/h 20 % 0 mm
13:19 34.2 °C 8.1 °C 1015.5 hPa North 18.5 km/h 10.3 km/h 20 % 0 mm
13:24 34.8 °C 7.8 °C 1015.5 hPa NNW 27.8 km/h 17.7 km/h 19 % 0 mm
13:29 34.9 °C 7.9 °C 1015.5 hPa NNW 25.9 km/h 13.5 km/h 19 % 0 mm
13:34 34.7 °C 7.7 °C 1015.1 hPa NW 33.8 km/h 17.5 km/h 19 % 0 mm
13:39 34.6 °C 7.6 °C 1015.1 hPa NW 22.2 km/h 12.7 km/h 19 % 0 mm
13:44 35.1 °C 7.2 °C 1015.1 hPa NW 27.8 km/h 19.3 km/h 18 % 0 mm
13:49 34.9 °C 7.1 °C 1015.1 hPa NNW 25.9 km/h 10.6 km/h 18 % 0 mm
13:54 35.2 °C 7.3 °C 1015.1 hPa NNW 25.9 km/h 20.8 km/h 18 % 0 mm
13:59 35.2 °C 7.3 °C 1015.1 hPa NE 22.2 km/h 12.1 km/h 18 % 0 mm
14:04 35.3 °C 8.2 °C 1014.8 hPa NW 22.5 km/h 14.8 km/h 19 % 0 mm
14:09 35.3 °C 7.4 °C 1014.8 hPa NNE 25.9 km/h 14.8 km/h 18 % 0 mm
14:14 35.4 °C 6.7 °C 1014.8 hPa NNE 22.2 km/h 19.5 km/h 17 % 0 mm
14:19 35.6 °C 7.6 °C 1014.8 hPa North 20.4 km/h 17.4 km/h 18 % 0 mm
14:24 35.3 °C 7.4 °C 1014.8 hPa NNW 20.9 km/h 13 km/h 18 % 0 mm
14:29 35.5 °C 7.6 °C 1014.8 hPa NW 29.6 km/h 18.5 km/h 18 % 0 mm
14:34 35.4 °C 6.6 °C 1014.4 hPa NW 31.5 km/h 23.5 km/h 17 % 0 mm
14:39 35.7 °C 6.8 °C 1014.4 hPa NNE 16.7 km/h 12.4 km/h 17 % 0 mm
14:44 35.7 °C 6.9 °C 1014.8 hPa NNW 35.2 km/h 18.2 km/h 17 % 0 mm
14:49 35.4 °C 7.5 °C 1014.4 hPa NW 16.7 km/h 7.2 km/h 18 % 0 mm
14:54 35.3 °C 6.6 °C 1014.4 hPa NNE 22.5 km/h 15.1 km/h 17 % 0 mm
14:59 35.1 °C 7.2 °C 1014.4 hPa NW 16.7 km/h 8.9 km/h 18 % 0 mm
15:04 35.2 °C 7.3 °C 1014.4 hPa NW 16.7 km/h 13.2 km/h 18 % 0 mm
15:09 34.9 °C 6.2 °C 1014.1 hPa NW 18.5 km/h 12.9 km/h 17 % 0 mm
15:14 34.8 °C 6.9 °C 1014.4 hPa NW 29.6 km/h 15.4 km/h 18 % 0 mm
15:19 34.7 °C 6.9 °C 1014.1 hPa NNW 9.7 km/h 7.4 km/h 18 % 0 mm
15:24 34.9 °C 6.3 °C 1014.1 hPa NNE 22.2 km/h 16.3 km/h 17 % 0 mm
15:29 34.9 °C 6.3 °C 1014.1 hPa NNE 19.3 km/h 17.9 km/h 17 % 0 mm
15:34 35.1 °C 6.3 °C 1014.1 hPa North 14.8 km/h 11.9 km/h 17 % 0 mm
15:39 35 °C 7.2 °C 1014.1 hPa NNW 18.5 km/h 11.6 km/h 18 % 0 mm
15:44 34.8 °C 7 °C 1014.1 hPa North 14.8 km/h 11.1 km/h 18 % 0 mm
15:49 34.9 °C 7.1 °C 1013.8 hPa NNW 16.7 km/h 9.2 km/h 18 % 0 mm
15:54 34.9 °C 7.1 °C 1013.8 hPa NNW 14.5 km/h 9.5 km/h 18 % 0 mm
15:59 35.1 °C 7.2 °C 1013.8 hPa NNW 14.8 km/h 13.8 km/h 18 % 0 mm
16:04 35.1 °C 6.3 °C 1013.4 hPa NW 25.9 km/h 12.9 km/h 17 % 0 mm
16:09 35 °C 6.3 °C 1013.4 hPa North 20.4 km/h 14.5 km/h 17 % 0 mm
16:14 35 °C 7.2 °C 1013.4 hPa North 14.8 km/h 8.9 km/h 18 % 0 mm
16:19 35.2 °C 6.4 °C 1013.4 hPa NNE 17.7 km/h 11.4 km/h 17 % 0 mm
16:24 35.2 °C 7.3 °C 1013.4 hPa NNW 11.3 km/h 9.2 km/h 18 % 0 mm
16:29 35.1 °C 6.4 °C 1013.4 hPa NNW 16.7 km/h 7.6 km/h 17 % 0 mm
16:34 35.1 °C 6.3 °C 1013.4 hPa NNW 11.3 km/h 6.3 km/h 17 % 0 mm
16:39 35 °C 6.3 °C 1013.4 hPa NW 16.7 km/h 9.8 km/h 17 % 0 mm
16:44 34.9 °C 6.2 °C 1013.1 hPa WNW 18.5 km/h 12.2 km/h 17 % 0 mm
16:49 34.7 °C 6.1 °C 1013.1 hPa NW 11.3 km/h 10 km/h 17 % 0 mm
16:54 34.7 °C 6.9 °C 1013.4 hPa NW 14.8 km/h 11.1 km/h 18 % 0 mm
16:59 34.7 °C 6.9 °C 1013.1 hPa NW 11.1 km/h 4 km/h 18 % 0 mm
17:04 34.7 °C 6.9 °C 1013.1 hPa NNW 5.6 km/h 4.2 km/h 18 % 0 mm
17:09 34.7 °C 6.1 °C 1013.4 hPa NNW 16.7 km/h 6.4 km/h 17 % 0 mm
17:14 34.8 °C 6.1 °C 1013.4 hPa North 13 km/h 6.4 km/h 17 % 0 mm
17:19 35 °C 7.2 °C 1013.1 hPa NNW 11.1 km/h 6.9 km/h 18 % 0 mm
17:24 35.6 °C 6.8 °C 1013.1 hPa NW 11.1 km/h 9.5 km/h 17 % 0 mm
17:29 35.7 °C 6.9 °C 1013.1 hPa NW 14.8 km/h 8 km/h 17 % 0 mm
17:34 35.9 °C 7.1 °C 1013.1 hPa NNW 11.1 km/h 8.5 km/h 17 % 0 mm
17:39 35.9 °C 6.2 °C 1013.1 hPa North 13 km/h 11.9 km/h 16 % 0 mm
17:44 36 °C 7.1 °C 1013.1 hPa NNW 13 km/h 11.7 km/h 17 % 0 mm
17:49 36 °C 6.2 °C 1013.1 hPa NNW 11.3 km/h 8 km/h 16 % 0 mm
17:54 36.1 °C 6.3 °C 1013.1 hPa North 18.5 km/h 9.3 km/h 16 % 0 mm
17:59 36.2 °C 5.4 °C 1013.1 hPa NNE 18.5 km/h 12.6 km/h 15 % 0 mm
18:04 36.2 °C 6.3 °C 1013.1 hPa North 18.5 km/h 8.2 km/h 16 % 0 mm
18:09 36.2 °C 5.4 °C 1013.1 hPa NNE 16.7 km/h 10.6 km/h 15 % 0 mm
18:14 35.8 °C 6.1 °C 1013.1 hPa NW 18.5 km/h 12.9 km/h 16 % 0 mm
18:19 35.3 °C 5.7 °C 1013.1 hPa NNW 20.4 km/h 17.7 km/h 16 % 0 mm
18:24 34.9 °C 6.3 °C 1013.1 hPa NW 14.8 km/h 8.4 km/h 17 % 0 mm
18:29 35 °C 6.3 °C 1013.1 hPa NNW 14.8 km/h 6.8 km/h 17 % 0 mm
18:34 35.1 °C 5.5 °C 1013.1 hPa NNE 14.8 km/h 8.2 km/h 16 % 0 mm
18:39 35.1 °C 6.3 °C 1013.1 hPa NNE 13 km/h 7.9 km/h 17 % 0 mm
18:44 35.2 °C 6.4 °C 1013.1 hPa North 14.8 km/h 7.7 km/h 17 % 0 mm
18:49 35.1 °C 5.5 °C 1013.1 hPa North 9.3 km/h 8 km/h 16 % 0 mm
18:54 34.8 °C 5.3 °C 1013.4 hPa NNW 20.4 km/h 14.5 km/h 16 % 0 mm
18:59 34.7 °C 6.1 °C 1013.4 hPa North 16.7 km/h 9.2 km/h 17 % 0 mm
19:04 34.6 °C 5.9 °C 1013.4 hPa NNW 11.1 km/h 9.3 km/h 17 % 0 mm
19:09 34.4 °C 5.8 °C 1013.4 hPa NNW 13 km/h 9.8 km/h 17 % 0 mm
19:14 34.3 °C 5.7 °C 1013.4 hPa NNW 9.3 km/h 8.4 km/h 17 % 0 mm
19:19 34.1 °C 5.6 °C 1013.4 hPa NNW 9.3 km/h 6.6 km/h 17 % 0 mm
19:24 34 °C 5.5 °C 1013.4 hPa NNW 9.3 km/h 6 km/h 17 % 0 mm
19:29 33.9 °C 6.2 °C 1013.4 hPa NNW 5.6 km/h 3.1 km/h 18 % 0 mm
19:34 33.7 °C 6.1 °C 1013.4 hPa NNW 6.4 km/h 3.5 km/h 18 % 0 mm
19:39 33.5 °C 5.9 °C 1013.4 hPa NNW 3.7 km/h 3.9 km/h 18 % 0 mm
19:44 33.3 °C 6.6 °C 1013.4 hPa NNW 5.6 km/h 3.5 km/h 19 % 0 mm
19:49 33.1 °C 6.4 °C 1013.4 hPa NNW 5.6 km/h 2.4 km/h 19 % 0 mm
19:54 32.8 °C 6.9 °C 1013.4 hPa NNW 5.6 km/h 2.4 km/h 20 % 0 mm
19:59 32.4 °C 6.6 °C 1013.8 hPa NNW 3.7 km/h 0.5 km/h 20 % 0 mm
20:04 32 °C 6.9 °C 1013.8 hPa NNW 3.2 km/h 0.3 km/h 21 % 0 mm
20:09 31.4 °C 7.2 °C 1014.1 hPa WNW 13 km/h 8.7 km/h 22 % 0 mm
20:14 31.1 °C 8.1 °C 1014.1 hPa South 12.9 km/h 9.5 km/h 24 % 0 mm
20:19 30.8 °C 8.5 °C 1014.1 hPa South 16.1 km/h 5.8 km/h 25 % 0 mm
20:24 30.5 °C 8.8 °C 1014.4 hPa SSW 13 km/h 6.4 km/h 26 % 0 mm
20:29 30.2 °C 9.2 °C 1014.4 hPa SSW 13 km/h 9.2 km/h 27 % 0 mm
20:34 29.9 °C 8.9 °C 1014.4 hPa SSW 18.5 km/h 13.2 km/h 27 % 0 mm
20:39 29.7 °C 9.3 °C 1014.4 hPa South 16.7 km/h 10.6 km/h 28 % 0 mm
20:44 29.6 °C 9.1 °C 1014.8 hPa South 9.3 km/h 8 km/h 28 % 0 mm
20:49 29.4 °C 9 °C 1014.8 hPa South 11.1 km/h 6.1 km/h 28 % 0 mm
20:54 29.3 °C 8.9 °C 1014.8 hPa South 7.4 km/h 3.2 km/h 28 % 0 mm
20:59 29.2 °C 9.3 °C 1014.8 hPa South 5.6 km/h 1.9 km/h 29 % 0 mm
21:04 29.1 °C 9.2 °C 1014.8 hPa South 7.4 km/h 3.2 km/h 29 % 0 mm
21:09 28.8 °C 9 °C 1015.1 hPa South 5.6 km/h 3.9 km/h 29 % 0 mm
21:14 28.6 °C 9.3 °C 1015.1 hPa South 8 km/h 4.2 km/h 30 % 0 mm
21:19 28.3 °C 9.1 °C 1015.1 hPa South 9.3 km/h 5.5 km/h 30 % 0 mm
21:24 28.2 °C 9.4 °C 1015.1 hPa South 3.7 km/h 1.1 km/h 31 % 0 mm
21:29 28.1 °C 9.3 °C 1015.1 hPa South 1.9 km/h   31 % 0 mm
21:34 27.8 °C 9.6 °C 1015.1 hPa South 3.7 km/h 1.9 km/h 32 % 0 mm
21:39 27.6 °C 9.4 °C 1015.5 hPa Calm     32 % 0 mm
21:44 27.3 °C 9.1 °C 1015.5 hPa Calm     32 % 0 mm
21:49 26.9 °C 9.7 °C 1015.5 hPa Calm     34 % 0 mm
21:54 26.6 °C 9.4 °C 1015.5 hPa Calm     34 % 0 mm
21:59 26.3 °C 10.1 °C 1015.8 hPa Calm     36 % 0 mm
22:04 25.8 °C 10 °C 1015.8 hPa South 3.7 km/h 3.2 km/h 37 % 0 mm
22:09 25.4 °C 10.1 °C 1015.8 hPa South 5.6 km/h 2.9 km/h 38 % 0 mm
22:14 25.2 °C 10.3 °C 1015.8 hPa South 3.7 km/h 2.1 km/h 39 % 0 mm
22:19 24.9 °C 10 °C 1015.8 hPa South 5.6 km/h 3.9 km/h 39 % 0 mm
22:24 24.8 °C 10.3 °C 1015.8 hPa South 5.6 km/h 2.4 km/h 40 % 0 mm
22:29 24.8 °C 10.3 °C 1016.1 hPa South 1.9 km/h   40 % 0 mm
22:34 24.8 °C 9.9 °C 1016.1 hPa Calm     39 % 0 mm
22:39 24.9 °C 10 °C 1015.8 hPa South 3.2 km/h 1.9 km/h 39 % 0 mm
22:44 24.8 °C 9.9 °C 1015.8 hPa South 3.7 km/h 0.6 km/h 39 % 0 mm
22:49 24.7 °C 10.2 °C 1015.8 hPa Calm     40 % 0 mm
22:54 24.4 °C 10.3 °C 1015.8 hPa Calm     41 % 0 mm
22:59 24.3 °C 10.2 °C 1015.8 hPa South 5.6 km/h 4.7 km/h 41 % 0 mm
23:04 24.2 °C 10.5 °C 1015.8 hPa South 5.6 km/h 3.5 km/h 42 % 0 mm
23:09 24.1 °C 10.3 °C 1015.8 hPa South 5.6 km/h 2.9 km/h 42 % 0 mm
23:14 24 °C 10.3 °C 1015.8 hPa South 3.7 km/h 1.6 km/h 42 % 0 mm
23:19 23.8 °C 10.5 °C 1015.8 hPa South 1.9 km/h   43 % 0 mm
23:24 23.6 °C 10.3 °C 1015.8 hPa Calm     43 % 0 mm
23:29 23.4 °C 10.4 °C 1015.8 hPa Calm     44 % 0 mm
23:34 23.2 °C 10.3 °C 1015.8 hPa Calm     44 % 0 mm
23:39 23 °C 10.4 °C 1015.8 hPa Calm     45 % 0 mm
23:44 22.8 °C 10.6 °C 1015.8 hPa Calm     46 % 0 mm
23:49 22.3 °C 10.4 °C 1015.8 hPa Calm     47 % 0 mm
23:54 22.1 °C 10.2 °C 1015.8 hPa Calm     47 % 0 mm
23:59 22 °C 10.5 °C 1015.8 hPa Calm     48 % 0 mm
Ararat Weather
Compliments of Weather Underground - 2.5 mb
Click here to send mail.


ABOUT

Live weather data from Ararat, Victoria, Australia, 3377
Data uploaded from Cumulus every 5 minutes to Weather Underground.
This site then downloads the raw data for formatting and display.
Metric and imperial data can be displayed. Graphs and historical data available.
Includes Sun and Moon times and rain image live from BOM.

Check out Ararat Weather on Facebook, Twitter and Google +

Help support ongoing costs by checking out the ads





Follow @AraratWeather